createdAt,value
2023-01-31T00:01:53.167Z,55.59
2023-01-31T00:04:20.646Z,55.39
2023-01-31T00:06:51.719Z,54.50
2023-01-31T00:09:19.739Z,53.87
2023-01-31T00:11:47.430Z,53.89
2023-01-31T00:14:19.958Z,53.23
2023-01-31T00:16:47.862Z,54.06
2023-01-31T00:19:15.459Z,53.37
2023-01-31T00:21:44.154Z,54.42
2023-01-31T00:24:15.397Z,55.51
2023-01-31T00:26:43.095Z,53.97
2023-01-31T00:29:11.252Z,55.29
2023-01-31T00:31:39.411Z,55.51
2023-01-31T00:34:07.293Z,55.32
2023-01-31T00:36:36.354Z,55.05
2023-01-31T00:39:06.462Z,52.59
2023-01-31T00:41:36.513Z,52.92
2023-01-31T00:44:06.789Z,54.16
2023-01-31T00:46:34.823Z,53.86
2023-01-31T00:49:03.909Z,53.69
2023-01-31T00:51:31.526Z,53.78
2023-01-31T00:53:59.128Z,52.95
2023-01-31T00:56:26.618Z,52.40
2023-01-31T00:58:55.983Z,53.57
2023-01-31T01:01:27.717Z,52.71
2023-01-31T01:03:57.511Z,52.38
2023-01-31T01:06:25.821Z,51.04
2023-01-31T01:08:54.319Z,53.12
2023-01-31T01:11:26.157Z,54.67
2023-01-31T01:13:54.030Z,53.88
2023-01-31T01:16:27.483Z,52.55
2023-01-31T01:18:58.299Z,52.97
2023-01-31T01:21:31.174Z,52.71
2023-01-31T01:24:02.948Z,54.21
2023-01-31T01:26:32.923Z,55.50
2023-01-31T01:29:01.970Z,51.49
2023-01-31T01:31:32.239Z,52.43
2023-01-31T01:34:02.377Z,53.09
2023-01-31T01:36:32.554Z,51.37
2023-01-31T01:39:00.140Z,51.29
2023-01-31T01:41:27.696Z,51.87
2023-01-31T01:43:58.120Z,52.67
2023-01-31T01:46:42.008Z,51.89
2023-01-31T01:49:33.689Z,52.51
2023-01-31T01:52:05.914Z,53.96
2023-01-31T01:54:59.307Z,55.50
2023-01-31T01:57:35.008Z,53.30
2023-01-31T02:00:20.921Z,52.78
2023-01-31T02:02:50.983Z,51.71
2023-01-31T02:05:24.821Z,51.55
2023-01-31T02:07:52.429Z,49.90
2023-01-31T02:10:28.969Z,51.90
2023-01-31T02:12:56.543Z,50.73
2023-01-31T02:15:25.022Z,51.10
2023-01-31T02:17:54.352Z,51.57
2023-01-31T02:20:46.839Z,50.98
2023-01-31T02:23:26.197Z,52.54
2023-01-31T02:25:56.738Z,51.72
2023-01-31T02:28:59.007Z,52.73
2023-01-31T02:31:53.402Z,50.32
2023-01-31T02:35:03.323Z,50.57
2023-01-31T02:38:08.353Z,50.11
2023-01-31T02:41:13.202Z,50.29
2023-01-31T02:44:24.859Z,50.72
2023-01-31T02:47:01.417Z,51.35
2023-01-31T02:49:41.071Z,51.11
2023-01-31T02:52:48.210Z,50.78
2023-01-31T02:55:42.207Z,51.54
2023-01-31T02:58:12.283Z,52.08
2023-01-31T03:00:45.555Z,50.93
2023-01-31T03:03:25.343Z,51.95
2023-01-31T03:06:11.596Z,50.62
2023-01-31T03:08:45.267Z,51.60
2023-01-31T03:11:14.103Z,50.52
2023-01-31T03:14:02.072Z,51.57
2023-01-31T03:17:01.650Z,51.73
2023-01-31T03:19:48.514Z,51.62
2023-01-31T03:22:25.160Z,51.84
2023-01-31T03:24:53.728Z,50.28
2023-01-31T03:27:22.332Z,50.81
2023-01-31T03:30:01.252Z,50.15
2023-01-31T03:32:40.736Z,51.83
2023-01-31T03:35:10.067Z,50.33
2023-01-31T03:37:43.487Z,51.26
2023-01-31T03:40:27.002Z,50.53
2023-01-31T03:43:02.299Z,50.71
2023-01-31T03:45:47.054Z,50.50
2023-01-31T03:48:19.286Z,50.20
2023-01-31T03:50:59.262Z,51.32
2023-01-31T03:54:14.878Z,50.46
2023-01-31T03:57:26.186Z,49.86
2023-01-31T03:59:58.160Z,50.59
2023-01-31T04:02:34.629Z,50.14
2023-01-31T04:05:25.260Z,50.07
2023-01-31T04:07:56.044Z,48.98
2023-01-31T04:10:26.477Z,50.81
2023-01-31T04:12:54.780Z,50.69
2023-01-31T04:15:22.649Z,49.58
2023-01-31T04:17:50.384Z,50.05
2023-01-31T04:20:18.011Z,50.47
2023-01-31T04:22:45.620Z,49.09
2023-01-31T04:25:13.128Z,49.90
2023-01-31T04:27:40.643Z,49.48
2023-01-31T04:30:08.873Z,49.98
2023-01-31T04:32:36.703Z,49.95
2023-01-31T04:35:04.516Z,50.54
2023-01-31T04:37:32.213Z,49.70
2023-01-31T04:39:59.727Z,49.61
2023-01-31T04:42:27.467Z,49.99
2023-01-31T04:44:55.046Z,49.26
2023-01-31T04:47:22.516Z,49.58
2023-01-31T04:49:49.969Z,50.31
2023-01-31T04:52:17.520Z,49.39
2023-01-31T04:54:45.107Z,49.92
2023-01-31T04:57:12.573Z,50.65
2023-01-31T04:59:40.010Z,51.22
2023-01-31T05:02:07.603Z,50.57
2023-01-31T05:04:35.152Z,50.11
2023-01-31T05:07:02.549Z,48.97
2023-01-31T05:09:30.175Z,48.41
2023-01-31T05:11:57.663Z,47.65
2023-01-31T05:14:25.182Z,47.27
2023-01-31T05:16:52.635Z,47.34
2023-01-31T05:19:20.176Z,46.70
2023-01-31T05:21:59.353Z,46.36
2023-01-31T05:24:32.748Z,46.64
2023-01-31T05:27:01.977Z,46.18
2023-01-31T05:29:32.762Z,45.76
2023-01-31T05:32:02.047Z,45.92
2023-01-31T05:34:33.645Z,46.09
2023-01-31T05:37:02.440Z,46.09
2023-01-31T05:39:30.340Z,45.68
2023-01-31T05:41:58.536Z,45.84
2023-01-31T05:44:26.093Z,45.96
2023-01-31T05:46:53.751Z,46.64
2023-01-31T05:49:21.188Z,46.27
2023-01-31T05:51:48.774Z,46.34
2023-01-31T05:54:16.205Z,45.94
2023-01-31T05:56:43.724Z,46.52
2023-01-31T05:59:11.362Z,45.90
2023-01-31T06:01:38.863Z,46.13
2023-01-31T06:04:06.376Z,45.88
2023-01-31T06:06:33.909Z,45.43
2023-01-31T06:09:01.490Z,45.26
2023-01-31T06:11:29.729Z,44.64
2023-01-31T06:13:59.439Z,45.06
2023-01-31T06:16:26.999Z,44.75
2023-01-31T06:18:55.956Z,44.71
2023-01-31T06:21:23.947Z,45.27
2023-01-31T06:23:51.497Z,45.39
2023-01-31T06:26:19.209Z,45.56
2023-01-31T06:28:46.846Z,46.07
2023-01-31T06:31:14.338Z,46.91
2023-01-31T06:33:47.237Z,44.31
2023-01-31T06:36:20.767Z,44.14
2023-01-31T06:38:52.729Z,43.64
2023-01-31T06:41:20.999Z,43.39
2023-01-31T06:43:49.010Z,43.03
2023-01-31T06:46:16.501Z,42.75
2023-01-31T06:48:44.592Z,41.42
2023-01-31T06:51:12.156Z,41.17
2023-01-31T06:53:39.647Z,40.61
2023-01-31T06:56:08.106Z,38.88
2023-01-31T06:58:35.851Z,39.80
2023-01-31T07:01:12.031Z,39.04
2023-01-31T07:03:39.834Z,37.60
2023-01-31T07:06:08.240Z,36.52
2023-01-31T07:08:36.433Z,36.38
2023-01-31T07:11:05.248Z,36.43
2023-01-31T07:13:33.331Z,36.15
2023-01-31T07:16:00.908Z,35.93
2023-01-31T07:18:28.874Z,36.34
2023-01-31T07:21:00.706Z,36.34
2023-01-31T07:23:28.203Z,36.34
2023-01-31T07:25:55.798Z,35.65
2023-01-31T07:28:23.321Z,34.88
2023-01-31T07:30:52.165Z,35.49
2023-01-31T07:33:20.035Z,34.64
2023-01-31T07:35:47.616Z,35.13
2023-01-31T07:38:15.287Z,33.78
2023-01-31T07:40:42.770Z,33.93
2023-01-31T07:43:10.332Z,33.56
2023-01-31T07:45:40.111Z,34.30
2023-01-31T07:48:07.750Z,34.08
2023-01-31T07:50:35.256Z,34.22
2023-01-31T07:53:02.690Z,33.87
2023-01-31T07:55:30.743Z,34.02
2023-01-31T07:57:58.369Z,34.51
2023-01-31T08:00:44.692Z,34.48
2023-01-31T08:03:33.658Z,35.87
2023-01-31T08:06:12.961Z,34.63
2023-01-31T08:08:42.218Z,34.79
2023-01-31T08:11:09.851Z,35.07
2023-01-31T08:13:39.116Z,35.24
2023-01-31T08:16:09.494Z,35.07
2023-01-31T08:18:38.113Z,35.72
2023-01-31T08:21:07.639Z,36.24
2023-01-31T08:23:35.591Z,36.27
2023-01-31T08:26:04.559Z,36.41
2023-01-31T08:28:32.807Z,37.16
2023-01-31T08:31:08.767Z,37.27
2023-01-31T08:33:38.627Z,37.62
2023-01-31T08:36:21.164Z,38.57
2023-01-31T08:38:49.886Z,38.50
2023-01-31T08:41:19.044Z,38.65
2023-01-31T08:43:58.263Z,38.47
2023-01-31T08:46:30.639Z,39.64
2023-01-31T08:48:59.681Z,39.57
2023-01-31T08:51:27.226Z,40.12
2023-01-31T08:53:55.466Z,39.46
2023-01-31T08:56:26.375Z,40.24
2023-01-31T08:58:54.855Z,40.58
2023-01-31T09:01:23.260Z,40.82
2023-01-31T09:03:56.537Z,41.73
2023-01-31T09:06:26.228Z,41.54
2023-01-31T09:08:55.429Z,41.74
2023-01-31T09:11:22.919Z,41.12
2023-01-31T09:13:51.828Z,42.06
2023-01-31T09:16:20.179Z,41.84
2023-01-31T09:18:47.922Z,41.26
2023-01-31T09:21:18.695Z,41.62
2023-01-31T09:23:47.433Z,41.11
2023-01-31T09:26:16.034Z,41.53
2023-01-31T09:28:43.768Z,40.97
2023-01-31T09:31:17.723Z,40.96
2023-01-31T09:33:45.044Z,40.41
2023-01-31T09:36:20.894Z,40.75
2023-01-31T09:38:49.138Z,41.10
2023-01-31T09:41:24.159Z,41.23
2023-01-31T09:44:03.270Z,41.48
2023-01-31T09:46:39.790Z,42.00
2023-01-31T09:49:16.867Z,41.61
2023-01-31T09:51:53.292Z,42.26
2023-01-31T09:54:28.361Z,41.73
2023-01-31T10:00:50.714Z,41.75
2023-01-31T10:03:54.959Z,42.34
2023-01-31T10:06:33.951Z,42.61
2023-01-31T10:09:21.019Z,42.38
2023-01-31T10:11:55.371Z,42.50
2023-01-31T10:14:50.740Z,44.90
2023-01-31T10:17:21.386Z,43.48
2023-01-31T10:20:15.970Z,43.77
2023-01-31T10:23:00.681Z,44.63
2023-01-31T10:26:02.297Z,43.95
2023-01-31T10:28:45.278Z,48.72
2023-01-31T10:31:27.393Z,45.13
2023-01-31T10:34:10.372Z,43.73
2023-01-31T10:36:46.801Z,43.94
2023-01-31T10:39:38.064Z,43.58
2023-01-31T10:42:30.833Z,43.37
2023-01-31T10:45:18.455Z,42.14
2023-01-31T10:48:04.258Z,42.76
2023-01-31T10:50:52.239Z,43.31
2023-01-31T10:53:44.952Z,43.22
2023-01-31T10:56:25.271Z,42.56
2023-01-31T10:58:56.720Z,42.98
2023-01-31T11:01:24.530Z,43.22
2023-01-31T11:03:54.428Z,43.24
2023-01-31T11:06:56.391Z,42.79
2023-01-31T11:09:37.493Z,42.96
2023-01-31T11:12:07.117Z,42.80
2023-01-31T11:14:37.189Z,43.07
2023-01-31T11:17:19.063Z,43.16
2023-01-31T11:19:59.894Z,42.91
2023-01-31T11:22:36.155Z,42.84
2023-01-31T11:25:05.497Z,42.89
2023-01-31T11:27:40.995Z,42.83
2023-01-31T11:30:19.372Z,43.20
2023-01-31T11:32:47.961Z,42.53
2023-01-31T11:35:15.408Z,42.56
2023-01-31T11:38:18.661Z,42.71
2023-01-31T11:40:46.304Z,42.50
2023-01-31T11:43:19.676Z,43.76
2023-01-31T11:45:58.050Z,44.20
2023-01-31T11:48:33.529Z,43.53
2023-01-31T11:51:04.511Z,43.63
2023-01-31T11:53:49.623Z,45.63
2023-01-31T11:56:20.123Z,46.85
2023-01-31T11:58:52.837Z,44.91
2023-01-31T12:01:23.118Z,45.04
2023-01-31T12:04:03.387Z,44.67
2023-01-31T12:06:40.703Z,43.91
2023-01-31T12:09:24.377Z,43.50
2023-01-31T12:11:57.094Z,44.47
2023-01-31T12:14:35.938Z,44.72
2023-01-31T12:17:06.546Z,46.70
2023-01-31T12:19:45.762Z,47.56
2023-01-31T12:22:25.401Z,45.19
2023-01-31T12:25:11.455Z,45.22
2023-01-31T12:28:04.436Z,43.88
2023-01-31T12:31:19.253Z,44.51
2023-01-31T12:33:52.626Z,46.05
2023-01-31T12:36:34.760Z,45.75
2023-01-31T12:39:19.980Z,45.16
2023-01-31T12:41:50.546Z,46.66
2023-01-31T12:44:26.927Z,47.90
2023-01-31T12:47:11.470Z,47.06
2023-01-31T12:49:47.340Z,50.54
2023-01-31T12:52:38.702Z,50.97
2023-01-31T12:55:34.272Z,51.19
2023-01-31T12:58:42.472Z,46.60
2023-01-31T13:01:15.089Z,48.98
2023-01-31T13:04:00.835Z,50.57
2023-01-31T13:06:37.924Z,46.72
2023-01-31T13:09:11.892Z,51.37
2023-01-31T13:11:39.141Z,46.44
2023-01-31T13:14:20.681Z,46.87
2023-01-31T13:16:53.668Z,45.99
2023-01-31T13:19:38.643Z,47.19
2023-01-31T13:22:18.282Z,49.34
2023-01-31T13:24:50.216Z,49.90
2023-01-31T13:27:25.238Z,50.11
2023-01-31T13:29:59.603Z,52.09
2023-01-31T13:32:27.219Z,50.72
2023-01-31T13:34:57.721Z,48.70
2023-01-31T13:37:28.226Z,48.99
2023-01-31T13:40:02.663Z,47.90
2023-01-31T13:42:33.449Z,48.82
2023-01-31T13:45:05.776Z,48.03
2023-01-31T13:47:46.149Z,48.36
2023-01-31T13:50:43.210Z,47.64
2023-01-31T13:53:20.527Z,47.55
2023-01-31T13:55:49.948Z,47.43
2023-01-31T13:58:25.196Z,47.77
2023-01-31T14:01:08.620Z,48.32
2023-01-31T14:03:54.599Z,46.42
2023-01-31T14:06:22.019Z,46.64
2023-01-31T14:08:52.126Z,46.99
2023-01-31T14:11:22.271Z,45.85
2023-01-31T14:14:13.482Z,46.71
2023-01-31T14:16:47.464Z,47.21
2023-01-31T14:19:23.921Z,47.80
2023-01-31T14:21:58.337Z,47.52
2023-01-31T14:24:47.250Z,47.04
2023-01-31T14:27:19.354Z,47.79
2023-01-31T14:29:58.185Z,46.91
2023-01-31T14:32:31.665Z,46.98
2023-01-31T14:35:07.717Z,47.97
2023-01-31T14:38:26.656Z,47.12
2023-01-31T14:41:32.651Z,46.84
2023-01-31T14:44:11.726Z,47.02
2023-01-31T14:46:48.902Z,47.46
2023-01-31T14:49:40.650Z,46.96
2023-01-31T14:52:43.417Z,46.90
2023-01-31T14:55:33.744Z,46.63
2023-01-31T14:58:04.225Z,46.95
2023-01-31T15:00:47.088Z,47.46
2023-01-31T15:03:36.151Z,46.33
2023-01-31T15:06:09.191Z,46.87
2023-01-31T15:08:43.780Z,47.01
2023-01-31T15:11:42.236Z,46.45
2023-01-31T15:14:42.160Z,46.44
2023-01-31T15:17:33.728Z,46.33
2023-01-31T15:20:18.692Z,46.63
2023-01-31T15:22:47.837Z,46.52
2023-01-31T15:25:39.219Z,45.73
2023-01-31T15:28:08.630Z,46.52
2023-01-31T15:30:37.006Z,46.61
2023-01-31T15:33:22.659Z,47.07
2023-01-31T15:36:09.304Z,46.16
2023-01-31T15:38:57.465Z,45.87
2023-01-31T15:41:36.812Z,46.06
2023-01-31T15:44:19.157Z,46.33
2023-01-31T15:46:52.499Z,46.74
2023-01-31T15:49:39.586Z,46.12
2023-01-31T15:52:15.200Z,46.22
2023-01-31T15:54:56.957Z,46.72
2023-01-31T15:57:41.821Z,47.67
2023-01-31T16:00:19.191Z,46.48
2023-01-31T16:02:48.207Z,46.81
2023-01-31T16:05:22.561Z,46.82
2023-01-31T16:07:50.531Z,46.58
2023-01-31T16:10:18.512Z,46.46
2023-01-31T16:12:51.109Z,47.46
2023-01-31T16:15:24.311Z,46.75
2023-01-31T16:17:53.818Z,46.86
2023-01-31T16:20:53.241Z,46.62
2023-01-31T16:23:26.940Z,46.67
2023-01-31T16:26:26.445Z,46.26
2023-01-31T16:28:58.837Z,46.62
2023-01-31T16:31:34.396Z,45.69
2023-01-31T16:34:09.804Z,45.35
2023-01-31T16:36:54.050Z,45.48
2023-01-31T16:39:34.837Z,45.60
2023-01-31T16:42:05.573Z,45.77
2023-01-31T16:44:41.331Z,45.70
2023-01-31T16:47:31.217Z,45.30
2023-01-31T16:50:17.357Z,45.58
2023-01-31T16:56:14.889Z,46.33
2023-01-31T16:59:02.604Z,45.91
2023-01-31T17:01:34.698Z,46.08
2023-01-31T17:04:05.974Z,46.48
2023-01-31T17:06:34.199Z,46.55
2023-01-31T17:09:05.199Z,46.12
2023-01-31T17:11:42.638Z,46.79
2023-01-31T17:14:11.034Z,46.12
2023-01-31T17:16:38.782Z,46.26
2023-01-31T17:19:06.258Z,46.83
2023-01-31T17:21:42.079Z,46.35
2023-01-31T17:24:15.134Z,46.96
2023-01-31T17:26:42.980Z,46.64
2023-01-31T17:29:11.223Z,46.65
2023-01-31T17:31:39.715Z,46.88
2023-01-31T17:34:13.976Z,46.24
2023-01-31T17:36:41.820Z,46.64
2023-01-31T17:39:09.443Z,46.51
2023-01-31T17:41:41.427Z,46.60
2023-01-31T17:44:14.053Z,46.53
2023-01-31T17:46:43.392Z,46.23
2023-01-31T17:49:11.595Z,46.60
2023-01-31T17:51:39.449Z,46.44
2023-01-31T17:54:07.341Z,46.22
2023-01-31T17:56:35.013Z,46.39
2023-01-31T17:59:02.483Z,46.95
2023-01-31T18:01:31.091Z,47.05
2023-01-31T18:04:00.926Z,46.42
2023-01-31T18:06:28.483Z,47.54
2023-01-31T18:08:56.091Z,47.22
2023-01-31T18:11:23.579Z,47.25
2023-01-31T18:13:51.089Z,47.44
2023-01-31T18:16:21.807Z,47.47
2023-01-31T18:18:50.605Z,47.11
2023-01-31T18:21:21.769Z,47.38
2023-01-31T18:23:56.773Z,47.06
2023-01-31T18:26:25.777Z,46.95
2023-01-31T18:28:55.689Z,46.90
2023-01-31T18:31:23.413Z,46.93
2023-01-31T18:33:51.119Z,47.40
2023-01-31T18:36:21.712Z,47.04
2023-01-31T18:38:50.532Z,46.77
2023-01-31T18:41:20.397Z,47.17
2023-01-31T18:43:49.545Z,47.29
2023-01-31T18:46:17.459Z,47.57
2023-01-31T18:48:45.434Z,47.60
2023-01-31T18:51:14.893Z,47.40
2023-01-31T18:53:45.633Z,47.58
2023-01-31T18:56:16.771Z,47.45
2023-01-31T18:58:46.030Z,47.05
2023-01-31T19:01:18.201Z,46.83
2023-01-31T19:03:47.562Z,47.20
2023-01-31T19:06:18.208Z,47.02
2023-01-31T19:08:52.618Z,46.62
2023-01-31T19:11:25.074Z,46.77
2023-01-31T19:13:53.188Z,46.54
2023-01-31T19:16:29.455Z,46.67
2023-01-31T19:19:13.118Z,46.71
2023-01-31T19:21:41.203Z,47.04
2023-01-31T19:24:13.053Z,46.83
2023-01-31T19:26:44.346Z,46.71
2023-01-31T19:29:16.102Z,46.85
2023-01-31T19:31:43.997Z,46.60
2023-01-31T19:34:11.633Z,46.61
2023-01-31T19:36:41.907Z,47.12
2023-01-31T19:39:11.901Z,46.66
2023-01-31T19:41:39.384Z,46.80
2023-01-31T19:44:06.999Z,46.48
2023-01-31T19:46:36.532Z,47.00
2023-01-31T19:49:04.899Z,46.24
2023-01-31T19:51:32.847Z,46.64
2023-01-31T19:54:02.856Z,46.41
2023-01-31T19:56:32.484Z,47.00
2023-01-31T19:59:00.665Z,46.78
2023-01-31T20:01:28.167Z,46.32
2023-01-31T20:03:55.953Z,46.30
2023-01-31T20:06:25.984Z,46.83
2023-01-31T20:08:57.777Z,46.69
2023-01-31T20:11:28.065Z,45.94
2023-01-31T20:13:58.157Z,46.23
2023-01-31T20:16:26.514Z,46.31
2023-01-31T20:18:55.818Z,46.60
2023-01-31T20:21:24.000Z,47.02
2023-01-31T20:23:51.672Z,46.89
2023-01-31T20:26:21.028Z,47.03
2023-01-31T20:28:48.602Z,47.13
2023-01-31T20:31:17.094Z,46.79
2023-01-31T20:33:44.799Z,46.49
2023-01-31T20:36:12.993Z,46.66
2023-01-31T20:38:41.260Z,47.23
2023-01-31T20:41:09.547Z,47.13
2023-01-31T20:43:37.312Z,47.09
2023-01-31T20:46:10.921Z,47.30
2023-01-31T20:48:39.612Z,47.23
2023-01-31T20:51:07.459Z,47.37
2023-01-31T20:53:36.017Z,47.13
2023-01-31T20:56:10.229Z,47.54
2023-01-31T20:58:40.586Z,48.02
2023-01-31T21:01:13.558Z,47.84
2023-01-31T21:03:41.152Z,48.06
2023-01-31T21:06:09.021Z,47.50
2023-01-31T21:08:37.280Z,47.63
2023-01-31T21:11:08.195Z,47.96
2023-01-31T21:13:36.291Z,47.27
2023-01-31T21:16:06.490Z,47.84
2023-01-31T21:18:37.771Z,47.69
2023-01-31T21:21:07.629Z,48.32
2023-01-31T21:23:35.976Z,48.63
2023-01-31T21:26:05.564Z,48.38
2023-01-31T21:28:33.843Z,48.87
2023-01-31T21:31:09.008Z,49.31
2023-01-31T21:33:36.817Z,49.25
2023-01-31T21:36:12.439Z,48.04
2023-01-31T21:38:40.470Z,48.22
2023-01-31T21:41:27.885Z,48.49
2023-01-31T21:43:55.899Z,48.50
2023-01-31T21:46:24.674Z,48.21
2023-01-31T21:48:52.440Z,48.03
2023-01-31T21:51:22.631Z,48.58
2023-01-31T21:53:50.517Z,48.79
2023-01-31T21:56:20.898Z,48.36
2023-01-31T21:58:49.005Z,48.55
2023-01-31T22:01:20.831Z,48.43
2023-01-31T22:03:51.168Z,48.07
2023-01-31T22:06:21.276Z,48.44
2023-01-31T22:08:53.315Z,48.80
2023-01-31T22:11:21.756Z,48.15
2023-01-31T22:13:52.676Z,49.68
2023-01-31T22:16:22.327Z,48.98
2023-01-31T22:18:50.164Z,50.37
2023-01-31T22:21:20.365Z,50.53
2023-01-31T22:23:50.796Z,49.63
2023-01-31T22:26:27.159Z,48.57
2023-01-31T22:28:56.880Z,48.94
2023-01-31T22:31:25.531Z,48.21
2023-01-31T22:33:53.350Z,47.79
2023-01-31T22:36:21.153Z,48.01
2023-01-31T22:38:48.699Z,47.71
2023-01-31T22:41:19.870Z,47.95
2023-01-31T22:43:49.660Z,47.70
2023-01-31T22:46:20.570Z,47.77
2023-01-31T22:48:49.711Z,47.72
2023-01-31T22:51:20.195Z,47.45
2023-01-31T22:53:47.788Z,47.53
2023-01-31T22:56:17.987Z,47.95
2023-01-31T22:58:45.689Z,47.57
2023-01-31T23:01:20.225Z,48.54
2023-01-31T23:03:48.348Z,47.66
2023-01-31T23:06:17.261Z,47.74
2023-01-31T23:08:45.397Z,47.75
2023-01-31T23:11:15.536Z,47.68
2023-01-31T23:13:43.880Z,47.46
2023-01-31T23:16:17.472Z,48.42
2023-01-31T23:18:45.195Z,47.32
2023-01-31T23:21:18.968Z,47.77
2023-01-31T23:23:46.962Z,47.22
2023-01-31T23:26:14.536Z,47.11
2023-01-31T23:28:42.067Z,47.41
2023-01-31T23:31:09.604Z,47.37
2023-01-31T23:33:37.187Z,47.26
2023-01-31T23:36:05.001Z,46.89
2023-01-31T23:38:32.467Z,46.96
2023-01-31T23:40:59.996Z,46.88
2023-01-31T23:43:27.416Z,46.47
2023-01-31T23:45:54.977Z,46.51
2023-01-31T23:48:22.518Z,46.25
2023-01-31T23:50:49.995Z,45.83
2023-01-31T23:53:17.728Z,46.54
2023-01-31T23:55:45.249Z,45.93
2023-01-31T23:58:12.697Z,45.91
